Time;durP1;ratioP1;P1;durP2;ratioP2;P2;SDS_P1;SDS_P2;PMS_P1;PMS_P2;Temp;Humidity;BMP_temperature;BMP_pressure;BME280_temperature;BME280_humidity;BME280_pressure;Samples;Min_cycle;Max_cycle;Signal;HPM_P1;HPM_P2
2022/03/13 00:02:19;;;;;;;;;10.00;9.00;;;;;11.06;67.52;100846.28;5047463;28;45453;-72
2022/03/13 00:04:50;;;;;;;;;10.25;8.00;;;;;11.09;67.65;100854.88;5050944;28;45409;-70
2022/03/13 00:07:19;;;;;;;;;9.00;8.75;;;;;11.09;67.37;100843.50;5060946;28;46678;-71
2022/03/13 00:09:54;;;;;;;;;10.00;10.00;;;;;11.11;67.41;100845.09;5061261;28;45528;-71
2022/03/13 00:12:26;;;;;;;;;9.75;8.00;;;;;11.13;67.13;100839.72;5056132;28;45386;-71
2022/03/13 00:14:55;;;;;;;;;9.00;8.25;;;;;11.12;66.46;100846.78;5061328;28;45437;-71
2022/03/13 00:17:21;;;;;;;;;6.75;6.00;;;;;11.12;66.57;100843.28;5060448;28;45406;-70
2022/03/13 00:19:47;;;;;;;;;8.25;7.50;;;;;11.13;66.52;100842.34;5064898;28;45538;-71
2022/03/13 00:22:13;;;;;;;;;11.50;9.00;;;;;11.12;66.82;100838.03;5057340;28;45406;-71
2022/03/13 00:24:38;;;;;;;;;14.00;10.00;;;;;11.14;66.44;100844.91;5051161;28;45293;-72
2022/03/13 00:27:07;;;;;;;;;9.50;8.00;;;;;11.16;66.57;100835.13;5061173;28;45227;-72
2022/03/13 00:29:33;;;;;;;;;6.50;5.00;;;;;11.17;66.33;100836.81;5061292;28;45451;-69
2022/03/13 00:31:58;;;;;;;;;8.00;7.75;;;;;11.19;66.36;100844.63;5058016;28;45403;-70
2022/03/13 00:34:24;;;;;;;;;7.25;7.25;;;;;11.23;66.17;100840.88;5051689;28;45348;-70
2022/03/13 00:36:49;;;;;;;;;9.25;5.50;;;;;11.24;65.82;100837.28;5048455;28;45505;-70
2022/03/13 00:39:16;;;;;;;;;8.50;7.00;;;;;11.24;65.77;100842.56;5049769;28;45507;-69
2022/03/13 00:41:42;;;;;;;;;8.50;7.50;;;;;11.23;66.05;100843.53;5047204;28;46178;-74
2022/03/13 00:44:08;;;;;;;;;8.25;7.00;;;;;11.23;65.90;100832.97;5056470;28;46627;-68
2022/03/13 00:46:34;;;;;;;;;7.50;5.50;;;;;11.24;65.55;100836.44;5052675;28;45253;-68
2022/03/13 00:49:00;;;;;;;;;6.00;5.00;;;;;11.23;65.63;100827.69;5061445;28;45427;-67
2022/03/13 00:51:26;;;;;;;;;7.50;7.50;;;;;11.27;65.01;100839.75;5060511;28;45262;-67
2022/03/13 00:53:51;;;;;;;;;6.50;5.00;;;;;11.30;65.48;100823.75;5051974;28;45178;-67
2022/03/13 00:56:17;;;;;;;;;7.00;7.00;;;;;11.30;65.17;100825.53;5064121;28;45218;-68
2022/03/13 00:58:43;;;;;;;;;6.50;6.00;;;;;11.31;65.25;100825.44;5041359;28;45409;-67
2022/03/13 01:01:11;;;;;;;;;9.50;7.25;;;;;11.33;65.04;100826.19;5055532;28;45359;-68
2022/03/13 01:03:36;;;;;;;;;4.75;4.25;;;;;11.34;64.97;100819.13;5055388;28;45316;-68
2022/03/13 01:06:07;;;;;;;;;7.00;4.75;;;;;11.36;64.46;100822.50;5040680;28;45315;-68
2022/03/13 01:08:33;;;;;;;;;4.50;3.00;;;;;11.36;64.72;100818.06;5050571;28;45462;-67
2022/03/13 01:11:00;;;;;;;;;7.75;5.50;;;;;11.37;64.42;100824.19;5031088;28;46402;-68
2022/03/13 01:13:26;;;;;;;;;7.25;5.50;;;;;11.38;64.57;100818.84;5036834;28;45361;-68
2022/03/13 01:16:13;;;;;;;;;8.00;7.00;;;;;11.40;64.17;100813.47;5044948;28;45412;-68
2022/03/13 01:18:50;;;;;;;;;5.25;4.25;;;;;11.43;64.46;100810.63;5053731;28;45558;-68
2022/03/13 01:21:16;;;;;;;;;5.00;5.00;;;;;11.45;63.88;100807.00;5042428;28;46530;-67
2022/03/13 01:23:59;;;;;;;;;4.00;3.50;;;;;11.44;64.23;100805.25;5053653;28;45348;-67
2022/03/13 01:26:25;;;;;;;;;4.75;4.75;;;;;11.48;64.32;100807.72;5060950;28;45256;-67
2022/03/13 01:28:53;;;;;;;;;7.25;5.25;;;;;11.50;63.81;100800.56;5042289;28;45231;-67
2022/03/13 01:31:28;;;;;;;;;6.50;4.75;;;;;11.52;64.04;100796.03;5040269;28;46290;-67
2022/03/13 01:33:54;;;;;;;;;7.25;5.00;;;;;11.52;63.67;100793.38;5040497;28;45207;-67
2022/03/13 01:36:20;;;;;;;;;6.50;4.75;;;;;11.53;63.54;100795.09;5040444;28;45499;-67
2022/03/13 01:38:45;;;;;;;;;7.75;5.50;;;;;11.54;63.66;100792.38;5041120;28;45277;-67
2022/03/13 01:41:11;;;;;;;;;7.00;7.00;;;;;11.53;63.76;100785.38;5056907;28;46348;-67
2022/03/13 01:43:37;;;;;;;;;4.00;2.50;;;;;11.54;63.41;100787.09;5040347;28;45338;-67
2022/03/13 01:46:04;;;;;;;;;4.00;4.00;;;;;11.57;63.32;100786.91;5040476;28;45328;-67
2022/03/13 01:48:38;;;;;;;;;5.50;4.00;;;;;11.58;63.47;100785.94;5040156;28;45509;-67
2022/03/13 01:51:05;;;;;;;;;4.00;4.00;;;;;11.59;62.94;100769.16;5046244;28;46074;-68
2022/03/13 01:53:34;;;;;;;;;3.50;3.00;;;;;11.60;62.45;100772.66;5060241;28;45233;-68
2022/03/13 01:55:59;;;;;;;;;5.00;4.50;;;;;11.62;63.39;100776.91;5060440;28;45363;-67
2022/03/13 01:58:25;;;;;;;;;7.00;4.25;;;;;11.63;62.63;100773.31;5025179;28;45242;-67
2022/03/13 02:00:51;;;;;;;;;1.25;1.25;;;;;11.64;62.56;100771.53;5040941;28;45248;-67
2022/03/13 02:03:17;;;;;;;;;5.00;5.00;;;;;11.64;62.63;100777.66;5022804;28;45333;-67
2022/03/13 02:05:44;;;;;;;;;4.00;4.00;;;;;11.65;62.63;100767.94;5040109;28;45489;-67
2022/03/13 02:08:18;;;;;;;;;9.25;7.25;;;;;11.63;62.28;100770.69;5055760;28;45273;-67
2022/03/13 02:10:44;;;;;;;;;5.00;5.00;;;;;11.62;62.50;100757.59;5056690;28;45604;-67
2022/03/13 02:13:13;;;;;;;;;5.00;5.00;;;;;11.60;62.41;100760.31;5060166;28;45280;-67
2022/03/13 02:15:39;;;;;;;;;3.75;3.00;;;;;11.56;62.29;100755.34;5060190;28;45365;-67
2022/03/13 02:18:06;;;;;;;;;4.00;4.00;;;;;11.50;62.50;100748.66;5060307;28;45337;-67
2022/03/13 02:20:42;;;;;;;;;9.00;6.00;;;;;11.43;62.94;100742.06;5049379;28;46135;-67
2022/03/13 02:23:28;;;;;;;;;5.75;5.00;;;;;11.35;62.73;100742.53;5043472;28;45491;-67
2022/03/13 02:25:59;;;;;;;;;4.00;4.00;;;;;11.28;62.87;100740.38;5043110;28;45226;-67
2022/03/13 02:28:27;;;;;;;;;8.25;7.00;;;;;11.22;63.08;100732.84;5043348;28;45496;-67
2022/03/13 02:30:56;;;;;;;;;7.25;5.00;;;;;11.15;62.99;100727.97;5048301;28;45526;-67
2022/03/13 02:33:22;;;;;;;;;5.50;4.50;;;;;11.10;63.14;100727.41;5063157;28;45373;-67
2022/03/13 02:36:10;;;;;;;;;7.00;7.00;;;;;11.06;63.41;100725.91;5063379;28;45209;-67
2022/03/13 02:38:36;;;;;;;;;7.75;4.00;;;;;10.98;63.70;100722.91;5062934;28;45356;-67
2022/03/13 02:41:01;;;;;;;;;8.25;5.25;;;;;10.95;63.79;100719.59;5060544;28;45543;-67
2022/03/13 02:43:27;;;;;;;;;8.25;5.50;;;;;10.90;63.70;100726.00;5062959;28;45404;-67
2022/03/13 02:45:53;;;;;;;;;9.25;7.25;;;;;10.86;63.89;100715.72;5062971;28;45458;-67
2022/03/13 02:48:19;;;;;;;;;6.00;5.00;;;;;10.84;63.86;100720.25;5063109;28;45436;-67
2022/03/13 02:50:45;;;;;;;;;9.00;7.50;;;;;10.81;64.03;100720.41;5061852;28;45652;-67
2022/03/13 02:53:12;;;;;;;;;9.75;9.25;;;;;10.77;63.88;100717.13;5062844;28;45202;-68
2022/03/13 02:55:38;;;;;;;;;6.25;6.00;;;;;10.74;63.90;100716.44;5063141;28;45253;-67
2022/03/13 02:58:05;;;;;;;;;12.50;7.25;;;;;10.73;64.27;100717.38;5063319;28;45455;-67
2022/03/13 03:00:50;;;;;;;;;10.25;10.00;;;;;10.71;64.16;100712.22;5061904;28;45389;-67
2022/03/13 03:03:17;;;;;;;;;7.75;7.50;;;;;10.67;64.25;100718.63;5058875;28;45419;-67
2022/03/13 03:05:44;;;;;;;;;9.25;8.00;;;;;10.63;64.32;100715.31;5042483;28;45455;-67
2022/03/13 03:08:10;;;;;;;;;13.50;9.25;;;;;10.60;64.08;100717.31;5045314;28;45550;-67
2022/03/13 03:10:36;;;;;;;;;10.00;9.50;;;;;10.58;64.29;100716.53;5042198;28;45383;-67
2022/03/13 03:13:03;;;;;;;;;10.50;8.75;;;;;10.56;64.40;100705.25;5042462;28;45268;-67
2022/03/13 03:15:28;;;;;;;;;10.00;9.75;;;;;10.53;64.59;100711.53;5042341;28;45256;-67
2022/03/13 03:17:54;;;;;;;;;14.00;10.00;;;;;10.52;64.73;100709.00;5024444;28;45542;-67
2022/03/13 03:20:20;;;;;;;;;9.50;8.75;;;;;10.48;64.58;100710.97;5042169;28;45369;-67
2022/03/13 03:22:47;;;;;;;;;8.50;8.50;;;;;10.46;64.80;100702.31;5027823;28;45432;-67
2022/03/13 03:25:12;;;;;;;;;5.50;5.50;;;;;10.46;64.62;100710.22;5042567;28;45444;-67
2022/03/13 03:27:42;;;;;;;;;8.50;8.00;;;;;10.44;64.62;100704.19;5042390;28;45420;-67
2022/03/13 03:30:09;;;;;;;;;10.25;8.00;;;;;10.45;64.47;100712.94;5042215;28;45304;-67
2022/03/13 03:32:34;;;;;;;;;13.25;9.00;;;;;10.43;64.86;100699.88;5061456;28;45312;-67
2022/03/13 03:35:00;;;;;;;;;6.50;6.50;;;;;10.41;64.19;100699.09;5061293;28;45407;-67
2022/03/13 03:37:25;;;;;;;;;9.75;9.00;;;;;10.39;64.49;100706.25;5062432;28;45570;-67
2022/03/13 03:39:51;;;;;;;;;8.25;7.00;;;;;10.37;64.60;100696.75;5061373;28;45482;-67
2022/03/13 03:42:17;;;;;;;;;8.75;8.75;;;;;10.37;64.57;100700.22;5042313;28;45478;-67
2022/03/13 03:44:42;;;;;;;;;7.00;7.00;;;;;10.38;64.54;100694.00;5057826;28;45582;-67
2022/03/13 03:47:08;;;;;;;;;7.00;7.00;;;;;10.37;64.15;100700.22;5062094;28;45374;-67
2022/03/13 03:49:34;;;;;;;;;8.50;8.50;;;;;10.38;64.39;100696.66;5061628;28;46512;-67
2022/03/13 03:51:59;;;;;;;;;9.50;7.25;;;;;10.37;64.69;100697.59;5060987;28;45482;-67
2022/03/13 03:54:25;;;;;;;;;11.25;8.50;;;;;10.36;64.38;100688.00;5062278;28;45327;-67
2022/03/13 03:56:51;;;;;;;;;10.00;8.25;;;;;10.35;64.03;100696.84;5062138;28;45209;-68
2022/03/13 03:59:20;;;;;;;;;8.50;8.00;;;;;10.33;64.39;100696.06;5061752;28;45330;-67
2022/03/13 04:01:45;;;;;;;;;7.00;7.00;;;;;10.30;64.35;100693.63;5059191;28;45407;-67
2022/03/13 04:04:11;;;;;;;;;10.00;8.75;;;;;10.29;64.28;100694.56;5050225;28;45254;-68
2022/03/13 04:06:38;;;;;;;;;9.00;7.50;;;;;10.26;64.47;100689.47;5041740;28;45418;-67
2022/03/13 04:09:07;;;;;;;;;8.75;8.00;;;;;10.23;64.10;100693.13;5044905;28;46203;-67
2022/03/13 04:11:34;;;;;;;;;6.25;5.25;;;;;10.19;64.20;100688.09;5049950;28;45342;-67
2022/03/13 04:13:59;;;;;;;;;7.25;7.25;;;;;10.19;63.94;100690.72;5061948;28;45335;-67
2022/03/13 04:16:25;;;;;;;;;4.25;4.25;;;;;10.19;64.31;100694.22;5061731;28;45309;-67
2022/03/13 04:18:50;;;;;;;;;8.25;6.25;;;;;10.21;64.08;100694.13;5061696;28;45785;-67
2022/03/13 04:21:17;;;;;;;;;11.25;7.25;;;;;10.21;64.32;100694.13;5059878;28;45356;-67
2022/03/13 04:23:43;;;;;;;;;8.25;7.25;;;;;10.22;64.14;100701.09;5061805;28;45402;-67
2022/03/13 04:26:09;;;;;;;;;9.00;7.00;;;;;10.25;64.15;100703.56;5061795;28;45605;-67
2022/03/13 04:28:35;;;;;;;;;8.00;8.00;;;;;10.25;64.27;100709.66;5061633;28;45355;-67
2022/03/13 04:31:00;;;;;;;;;8.25;8.00;;;;;10.27;63.86;100702.56;5060525;28;45131;-67
2022/03/13 04:33:33;;;;;;;;;9.25;7.50;;;;;10.27;63.76;100710.47;5053172;28;45367;-67
2022/03/13 04:36:00;;;;;;;;;10.00;8.00;;;;;10.29;63.82;100705.09;5041123;28;45440;-67
2022/03/13 04:38:27;;;;;;;;;8.00;6.75;;;;;10.31;63.86;100708.47;5041051;28;45491;-67
2022/03/13 04:40:54;;;;;;;;;8.00;6.75;;;;;10.34;63.95;100708.28;5049829;28;45451;-67
2022/03/13 04:43:21;;;;;;;;;8.75;7.00;;;;;10.37;63.58;100708.13;5039968;28;45406;-67
2022/03/13 04:45:48;;;;;;;;;8.00;6.00;;;;;10.40;63.32;100709.72;5041249;28;45543;-67
2022/03/13 04:48:15;;;;;;;;;7.50;6.75;;;;;10.43;63.49;100706.94;5041026;28;45511;-67
2022/03/13 04:50:41;;;;;;;;;9.00;7.00;;;;;10.45;63.62;100705.03;5040823;28;45166;-67
2022/03/13 04:53:06;;;;;;;;;5.50;5.00;;;;;10.47;63.05;100698.72;5041138;28;45167;-67
2022/03/13 04:55:32;;;;;;;;;6.25;5.25;;;;;10.49;63.09;100696.00;5041087;28;45303;-67
2022/03/13 04:57:58;;;;;;;;;3.25;2.25;;;;;10.50;63.07;100697.69;5040830;28;45203;-66
2022/03/13 05:00:25;;;;;;;;;7.75;5.75;;;;;10.52;62.39;100699.31;5040927;28;45764;-67
2022/03/13 05:02:51;;;;;;;;;6.50;5.25;;;;;10.53;62.48;100695.75;5040882;28;45498;-67
2022/03/13 05:05:17;;;;;;;;;5.00;4.75;;;;;10.55;62.46;100699.13;5050953;28;45607;-67
2022/03/13 05:07:43;;;;;;;;;5.25;5.25;;;;;10.58;62.36;100698.09;5056941;28;45427;-67
2022/03/13 05:10:10;;;;;;;;;7.25;5.25;;;;;10.60;62.66;100693.59;5029927;28;45316;-67
2022/03/13 05:12:36;;;;;;;;;7.25;6.00;;;;;10.60;62.41;100686.53;5057157;28;45487;-66
2022/03/13 05:15:02;;;;;;;;;7.75;5.25;;;;;10.60;62.26;100681.28;5061113;28;45269;-67
2022/03/13 05:17:28;;;;;;;;;7.25;4.25;;;;;10.59;62.15;100676.94;5060868;28;46421;-67
2022/03/13 05:19:53;;;;;;;;;5.00;4.50;;;;;10.61;62.14;100680.31;5060719;28;45348;-68
2022/03/13 05:22:19;;;;;;;;;5.25;3.75;;;;;10.61;61.80;100684.75;5046344;28;45577;-67
2022/03/13 05:24:44;;;;;;;;;4.50;4.50;;;;;10.59;61.50;100684.00;5040809;28;45383;-68
2022/03/13 05:27:10;;;;;;;;;4.75;3.75;;;;;10.55;61.65;100688.59;5040343;28;45327;-68
2022/03/13 05:29:35;;;;;;;;;4.50;3.75;;;;;10.56;61.47;100692.06;5040552;28;45410;-67
2022/03/13 05:32:01;;;;;;;;;3.25;3.25;;;;;10.53;61.37;100682.56;5040564;28;45482;-66
2022/03/13 05:34:26;;;;;;;;;4.25;3.00;;;;;10.55;61.75;100687.75;5040471;28;45319;-66
2022/03/13 05:36:52;;;;;;;;;11.50;4.00;;;;;10.52;61.72;100691.41;5040258;28;45404;-67
2022/03/13 05:39:17;;;;;;;;;3.00;3.00;;;;;10.54;61.64;100693.94;5051478;28;45458;-67
2022/03/13 05:41:43;;;;;;;;;6.75;3.25;;;;;10.55;61.82;100700.91;5044499;28;45261;-68
2022/03/13 05:44:10;;;;;;;;;6.75;4.50;;;;;10.55;61.74;100698.28;5028924;28;45580;-67
2022/03/13 05:46:36;;;;;;;;;3.50;3.50;;;;;10.53;61.64;100690.47;5039875;28;45483;-67
2022/03/13 05:49:03;;;;;;;;;4.50;3.00;;;;;10.55;61.44;100690.38;5060156;28;45364;-67
2022/03/13 05:51:37;;;;;;;;;3.00;3.00;;;;;10.55;61.40;100693.00;5060107;28;45329;-67
2022/03/13 05:54:06;;;;;;;;;3.75;3.75;;;;;10.55;61.47;100699.13;5058926;28;45510;-67
2022/03/13 05:56:32;;;;;;;;;4.00;4.00;;;;;10.56;61.06;100697.34;5043583;28;46160;-67
2022/03/13 05:58:57;;;;;;;;;5.00;3.25;;;;;10.57;61.24;100701.66;5043851;28;45377;-67
2022/03/13 06:01:23;;;;;;;;;5.00;4.00;;;;;10.57;61.27;100704.28;5043557;28;45479;-67
2022/03/13 06:03:48;;;;;;;;;3.00;3.00;;;;;10.57;61.51;100697.22;5044030;28;46579;-67
2022/03/13 06:06:14;;;;;;;;;4.00;4.00;;;;;10.56;61.25;100700.81;5043026;28;45938;-68
2022/03/13 06:08:40;;;;;;;;;4.25;4.25;;;;;10.56;61.37;100713.97;5046232;28;45233;-67
2022/03/13 06:11:06;;;;;;;;;3.50;3.00;;;;;10.54;61.20;100699.22;5030078;28;45357;-67
2022/03/13 06:13:32;;;;;;;;;5.75;3.25;;;;;10.56;61.36;100706.06;5063824;28;45399;-66
2022/03/13 06:15:58;;;;;;;;;5.00;2.50;;;;;10.57;61.20;100710.41;5044587;28;46033;-67
2022/03/13 06:18:27;;;;;;;;;3.25;3.00;;;;;10.58;61.28;100705.97;5043629;28;45290;-67
2022/03/13 06:20:53;;;;;;;;;3.50;2.00;;;;;10.57;60.87;100706.94;5043336;28;45364;-67
2022/03/13 06:23:19;;;;;;;;;3.00;3.00;;;;;10.58;61.26;100706.81;5043572;28;45416;-68
2022/03/13 06:25:45;;;;;;;;;3.75;2.50;;;;;10.59;60.88;100716.44;5043128;28;45641;-67
2022/03/13 06:28:11;;;;;;;;;2.00;2.00;;;;;10.59;61.01;100712.97;5050362;28;45233;-67
2022/03/13 06:30:37;;;;;;;;;4.25;2.50;;;;;10.60;60.79;100722.56;5043040;28;45463;-67
2022/03/13 06:33:03;;;;;;;;;2.50;2.25;;;;;10.59;60.55;100724.34;5043267;28;45165;-67
2022/03/13 06:35:29;;;;;;;;;2.00;2.00;;;;;10.59;60.89;100711.19;5042935;28;46030;-67
2022/03/13 06:37:55;;;;;;;;;3.50;3.50;;;;;10.58;60.58;100719.16;5042973;28;45384;-67
2022/03/13 06:40:24;;;;;;;;;2.00;2.00;;;;;10.56;60.77;100723.66;5052094;28;45375;-67
2022/03/13 06:42:52;;;;;;;;;3.00;3.00;;;;;10.57;60.76;100717.47;5043369;28;45384;-67
2022/03/13 06:45:18;;;;;;;;;7.00;3.00;;;;;10.61;60.56;100721.63;5042908;28;45306;-68
2022/03/13 06:47:46;;;;;;;;;4.00;3.00;;;;;10.63;61.02;100725.84;5042920;28;45551;-67
2022/03/13 06:50:17;;;;;;;;;3.25;2.75;;;;;10.65;60.94;100728.38;5042958;28;45518;-67
2022/03/13 06:52:46;;;;;;;;;3.00;2.00;;;;;10.66;60.51;100719.53;5042943;28;45260;-67
2022/03/13 06:55:13;;;;;;;;;3.50;2.00;;;;;10.71;60.74;100727.19;5049676;28;45430;-67
2022/03/13 06:57:42;;;;;;;;;3.00;3.00;;;;;10.72;60.15;100727.09;5062727;28;45511;-67
2022/03/13 07:00:08;;;;;;;;;3.50;3.00;;;;;10.78;60.32;100720.59;5062200;28;45334;-67
2022/03/13 07:02:34;;;;;;;;;3.00;2.00;;;;;10.82;60.27;100733.53;5062972;28;45423;-67
2022/03/13 07:04:59;;;;;;;;;2.75;2.00;;;;;10.85;59.76;100727.22;5043838;28;45434;-67
2022/03/13 07:07:25;;;;;;;;;9.50;5.00;;;;;10.91;60.34;100724.22;5044783;28;45323;-67
2022/03/13 07:09:52;;;;;;;;;3.00;2.25;;;;;10.98;60.21;100719.38;5044073;28;45427;-67
2022/03/13 07:12:19;;;;;;;;;2.00;2.00;;;;;11.06;59.84;100722.41;5062021;28;45316;-67
2022/03/13 07:14:48;;;;;;;;;3.75;3.75;;;;;11.16;59.78;100718.28;5062697;28;46351;-67
2022/03/13 07:17:15;;;;;;;;;3.75;2.75;;;;;11.31;59.43;100724.38;5062550;28;45324;-67
2022/03/13 07:19:43;;;;;;;;;1.50;1.50;;;;;11.38;59.08;100721.28;5061811;28;45477;-67
2022/03/13 07:22:18;;;;;;;;;3.00;2.25;;;;;11.43;59.09;100718.31;5062650;28;45392;-67
2022/03/13 07:24:46;;;;;;;;;4.00;4.00;;;;;11.50;59.25;100713.50;5062403;28;46337;-67
2022/03/13 07:27:14;;;;;;;;;3.50;3.50;;;;;11.57;58.78;100712.19;5062357;28;45308;-68
2022/03/13 07:29:39;;;;;;;;;4.00;2.00;;;;;11.62;58.43;100707.47;5061643;28;45299;-66
2022/03/13 07:32:05;;;;;;;;;8.00;3.00;;;;;11.72;58.09;100708.56;5062287;28;45402;-68
2022/03/13 07:34:33;;;;;;;;;2.00;2.00;;;;;11.84;58.03;100701.66;5061106;28;46181;-67
2022/03/13 07:36:58;;;;;;;;;2.00;2.00;;;;;11.90;57.65;100717.94;5062227;28;45443;-67
2022/03/13 07:39:24;;;;;;;;;3.00;3.00;;;;;11.95;57.23;100715.03;5054718;28;45309;-67
2022/03/13 07:41:51;;;;;;;;;5.50;2.00;;;;;11.95;57.09;100710.59;5045076;28;45535;-67
2022/03/13 07:44:17;;;;;;;;;1.00;1.00;;;;;11.96;57.18;100725.47;5052485;28;45467;-66
2022/03/13 07:46:43;;;;;;;;;2.25;2.25;;;;;11.96;56.73;100722.84;5052884;28;45292;-66
2022/03/13 07:49:08;;;;;;;;;3.25;2.25;;;;;11.94;57.04;100723.91;5061935;28;45331;-66
2022/03/13 07:51:34;;;;;;;;;3.00;3.00;;;;;11.89;56.78;100725.97;5043882;28;45397;-66
2022/03/13 07:54:01;;;;;;;;;2.25;2.00;;;;;11.81;56.57;100722.97;5060993;28;46138;-67
2022/03/13 07:56:27;;;;;;;;;2.00;2.00;;;;;11.75;56.90;100725.03;5061807;28;45451;-67
2022/03/13 07:58:53;;;;;;;;;3.00;2.75;;;;;11.73;56.69;100719.00;5062075;28;45482;-68
2022/03/13 08:01:19;;;;;;;;;3.00;3.00;;;;;11.75;56.54;100718.91;5061698;28;45417;-67
2022/03/13 08:03:45;;;;;;;;;2.75;2.00;;;;;11.78;56.49;100731.94;5051603;28;45623;-68
2022/03/13 08:06:11;;;;;;;;;3.50;1.25;;;;;11.80;56.06;100721.25;5053275;28;45182;-66
2022/03/13 08:08:37;;;;;;;;;4.25;2.00;;;;;11.84;56.24;100717.50;5054678;28;45316;-66
2022/03/13 08:11:04;;;;;;;;;2.25;2.25;;;;;11.87;56.07;100723.44;5050696;28;45345;-63
2022/03/13 08:13:29;;;;;;;;;2.00;2.00;;;;;11.90;56.12;100719.75;5050422;28;45748;-72
2022/03/13 08:15:55;;;;;;;;;1.50;1.50;;;;;11.94;56.48;100714.19;5047697;28;45453;-66
2022/03/13 08:18:21;;;;;;;;;2.00;2.00;;;;;12.01;56.23;100719.91;5049747;28;45387;-64
2022/03/13 08:20:47;;;;;;;;;2.00;2.00;;;;;12.09;56.13;100714.13;5051027;28;45263;-64
2022/03/13 08:23:13;;;;;;;;;4.00;2.75;;;;;12.17;55.93;100710.03;5052065;28;46111;-64
2022/03/13 08:25:39;;;;;;;;;3.25;2.75;;;;;12.25;55.65;100713.00;5055552;28;45356;-65
2022/03/13 08:28:06;;;;;;;;;2.00;1.00;;;;;12.35;55.34;100721.16;5033225;28;45440;-66
2022/03/13 08:30:32;;;;;;;;;4.00;2.00;;;;;12.43;55.27;100712.72;5045977;28;45396;-66
2022/03/13 08:32:57;;;;;;;;;2.00;2.00;;;;;12.48;55.11;100711.47;5040395;28;45588;-64
2022/03/13 08:35:24;;;;;;;;;2.00;2.00;;;;;12.53;54.72;100706.69;5045858;28;45469;-65
2022/03/13 08:37:51;;;;;;;;;2.75;1.50;;;;;12.48;54.52;100700.91;5048710;28;45510;-67
2022/03/13 08:40:16;;;;;;;;;3.25;2.50;;;;;12.52;54.67;100705.00;5049857;28;45503;-66
2022/03/13 08:42:42;;;;;;;;;3.00;3.00;;;;;12.53;54.48;100697.94;5048157;28;46056;-64
2022/03/13 08:45:08;;;;;;;;;3.00;2.00;;;;;12.61;54.32;100707.97;5049551;28;45489;-64
2022/03/13 08:47:34;;;;;;;;;3.00;2.75;;;;;12.73;54.42;100699.22;5050478;28;45495;-65
2022/03/13 08:49:59;;;;;;;;;2.75;2.00;;;;;12.82;53.76;100694.13;5045374;28;45472;-69
2022/03/13 08:52:25;;;;;;;;;4.00;3.00;;;;;12.92;54.11;100702.25;5050425;28;46099;-64
2022/03/13 08:54:50;;;;;;;;;1.00;1.00;;;;;13.03;53.61;100709.44;5050782;28;45323;-66
2022/03/13 08:57:16;;;;;;;;;1.50;1.50;;;;;13.11;53.16;100709.75;5049056;28;45293;-66
2022/03/13 08:59:41;;;;;;;;;1.25;1.25;;;;;13.19;53.25;100703.91;5052281;28;45220;-66
2022/03/13 09:02:09;;;;;;;;;3.00;2.00;;;;;13.28;53.04;100713.91;5051661;28;45946;-66
2022/03/13 09:04:35;;;;;;;;;4.75;4.75;;;;;13.38;53.06;100707.84;5050504;28;45429;-68
2022/03/13 09:07:00;;;;;;;;;2.00;2.00;;;;;13.47;52.38;100697.56;5049897;28;45342;-66
2022/03/13 09:09:26;;;;;;;;;2.00;2.00;;;;;13.55;52.97;100713.72;5049312;28;45370;-67
2022/03/13 09:11:52;;;;;;;;;2.00;2.00;;;;;13.65;52.37;100718.22;5037114;28;46430;-67
2022/03/13 09:14:18;;;;;;;;;2.00;2.00;;;;;13.70;52.30;100717.91;5063417;28;45327;-66
2022/03/13 09:16:45;;;;;;;;;0.00;0.00;;;;;13.82;51.83;100719.66;5051871;28;45340;-67
2022/03/13 09:19:12;;;;;;;;;3.00;2.00;;;;;13.97;52.18;100721.16;5048052;28;45600;-65
2022/03/13 09:21:40;;;;;;;;;3.75;2.75;;;;;14.09;51.97;100715.94;5063262;28;45293;-60
2022/03/13 09:24:07;;;;;;;;;1.00;1.00;;;;;14.23;51.33;100713.97;5040679;28;45453;-62
2022/03/13 09:26:39;;;;;;;;;2.50;2.00;;;;;14.34;51.21;100709.66;5048591;28;45509;-63
2022/03/13 09:29:06;;;;;;;;;2.00;2.00;;;;;14.41;50.66;100718.84;5049397;28;45545;-62
2022/03/13 09:31:32;;;;;;;;;1.00;1.00;;;;;14.45;50.43;100718.50;5050921;28;45304;-61
2022/03/13 09:33:57;;;;;;;;;2.25;2.25;;;;;14.48;50.53;100718.28;5047144;28;45424;-62
2022/03/13 09:36:24;;;;;;;;;1.75;1.00;;;;;14.57;50.19;100718.53;5054755;28;45335;-61
2022/03/13 09:38:49;;;;;;;;;1.25;1.00;;;;;14.57;49.88;100715.91;5053573;28;45390;-62
2022/03/13 09:41:16;;;;;;;;;3.25;1.25;;;;;14.53;49.82;100715.25;5053108;28;45478;-63
2022/03/13 09:43:41;;;;;;;;;1.00;1.00;;;;;14.53;49.90;100712.63;5052086;28;45337;-67
2022/03/13 09:46:07;;;;;;;;;2.00;2.00;;;;;14.56;49.57;100720.34;5056578;28;45454;-66
2022/03/13 09:48:36;;;;;;;;;1.50;1.50;;;;;14.55;49.55;100715.19;5050062;28;45574;-64
2022/03/13 09:51:04;;;;;;;;;2.00;2.00;;;;;14.51;49.52;100723.34;5052633;28;45479;-64
2022/03/13 09:53:39;;;;;;;;;2.00;2.00;;;;;14.48;49.21;100720.09;5052576;28;45332;-64
2022/03/13 09:56:05;;;;;;;;;1.50;1.00;;;;;14.54;49.62;100709.03;5051212;28;45474;-64
2022/03/13 09:58:32;;;;;;;;;3.50;3.00;;;;;14.63;49.22;100716.28;5053796;28;45319;-64
2022/03/13 10:00:57;;;;;;;;;2.00;2.00;;;;;14.64;49.62;100723.25;5051441;28;45308;-64
2022/03/13 10:03:23;;;;;;;;;1.50;1.50;;;;;14.70;49.81;100732.56;5052968;28;46608;-65
2022/03/13 10:05:51;;;;;;;;;1.25;1.00;;;;;14.73;49.66;100719.91;5049682;28;45518;-64
2022/03/13 10:08:18;;;;;;;;;1.75;1.75;;;;;14.70;49.29;100719.31;5053262;28;45566;-64
2022/03/13 10:10:49;;;;;;;;;1.25;1.00;;;;;14.61;49.44;100727.94;5052023;28;45861;-64
2022/03/13 10:13:31;;;;;;;;;1.50;1.50;;;;;14.56;49.47;100724.81;5048200;28;45298;-61
2022/03/13 10:15:57;;;;;;;;;1.00;1.00;;;;;14.51;49.63;100722.50;5051210;28;45313;-59
2022/03/13 10:18:25;;;;;;;;;1.75;1.00;;;;;14.59;49.40;100728.06;5035964;28;45253;-64
2022/03/13 10:20:52;;;;;;;;;2.75;2.00;;;;;14.68;49.39;100721.22;5031633;28;47045;-60
2022/03/13 10:23:20;;;;;;;;;0.75;0.75;;;;;14.69;49.09;100714.94;5049805;28;45484;-64
2022/03/13 10:25:51;;;;;;;;;2.75;1.00;;;;;14.63;49.10;100724.22;5051573;28;45367;-67
2022/03/13 10:28:31;;;;;;;;;1.75;1.75;;;;;14.55;48.82;100723.97;5048531;28;45491;-65
2022/03/13 10:30:59;;;;;;;;;1.50;1.25;;;;;14.45;49.43;100722.91;5050609;28;45237;-62
2022/03/13 10:33:48;;;;;;;;;3.75;2.00;;;;;14.36;49.17;100708.56;5051656;28;45360;-63
2022/03/13 10:36:19;;;;;;;;;2.00;2.00;;;;;14.25;49.35;100709.38;5054919;28;45487;-64
2022/03/13 10:38:47;;;;;;;;;4.50;3.50;;;;;14.18;49.92;100704.66;5050491;28;45455;-65
2022/03/13 10:41:13;;;;;;;;;2.00;1.25;;;;;14.13;50.04;100706.78;5033937;28;46753;-64
2022/03/13 10:43:51;;;;;;;;;1.00;1.00;;;;;14.10;50.05;100715.81;5052335;28;45679;-63
2022/03/13 10:46:31;;;;;;;;;2.25;2.25;;;;;14.11;50.16;100716.66;5052369;28;45224;-61
2022/03/13 10:48:59;;;;;;;;;2.75;1.75;;;;;14.11;50.00;100703.44;5046759;28;45574;-61
2022/03/13 10:51:36;;;;;;;;;1.50;1.50;;;;;14.09;49.81;100700.91;5047903;28;45379;-65
2022/03/13 10:54:03;;;;;;;;;9.50;9.00;;;;;14.08;49.90;100701.00;5049758;28;45459;-61
2022/03/13 10:56:30;;;;;;;;;3.00;2.00;;;;;14.07;50.30;100705.47;5053802;28;45522;-61
2022/03/13 10:58:57;;;;;;;;;0.75;0.75;;;;;14.03;49.90;100700.50;5052432;28;45633;-61
2022/03/13 11:01:25;;;;;;;;;2.00;2.00;;;;;13.97;49.94;100694.69;5049905;28;45474;-60
2022/03/13 11:04:07;;;;;;;;;3.00;1.00;;;;;14.00;50.08;100696.28;5035034;28;45583;-61
2022/03/13 11:06:36;;;;;;;;;1.75;1.75;;;;;14.03;50.06;100698.69;5049454;28;45475;-61
2022/03/13 11:09:02;;;;;;;;;4.75;2.00;;;;;14.07;49.98;100705.47;5048115;28;45331;-62
2022/03/13 11:11:28;;;;;;;;;1.00;1.00;;;;;14.08;49.72;100701.84;5051300;28;45304;-62
2022/03/13 11:14:01;;;;;;;;;1.00;1.00;;;;;14.07;49.80;100699.34;5048261;28;45330;-60
2022/03/13 11:16:32;;;;;;;;;1.00;1.00;;;;;14.10;49.89;100704.38;5057832;28;45403;-64
2022/03/13 11:19:01;;;;;;;;;2.00;2.00;;;;;14.12;49.79;100700.66;5054341;28;45423;-63
2022/03/13 11:21:27;;;;;;;;;1.00;1.00;;;;;14.11;49.60;100701.63;5047845;28;45494;-62
2022/03/13 11:23:54;;;;;;;;;3.50;1.00;;;;;14.13;49.70;100702.34;5042099;28;45294;-64
2022/03/13 11:26:22;;;;;;;;;0.75;0.75;;;;;14.21;49.81;100705.25;5049713;28;45474;-64